Time;durP1;ratioP1;P1;durP2;ratioP2;P2;SDS_P1;SDS_P2;PMS_P1;PMS_P2;Temp;Humidity;BMP_temperature;BMP_pressure;BME280_temperature;BME280_humidity;BME280_pressure;Samples;Min_cycle;Max_cycle;Signal;HPM_P1;HPM_P2
2023/01/08 00:01:05;;;;;;;1.90;1.20;;;;;;;10.69;45.59;100137.16;5066184;28;20399;-70
2023/01/08 00:03:33;;;;;;;1.90;1.30;;;;;;;10.68;46.21;100134.59;5065709;28;20351;-71
2023/01/08 00:06:02;;;;;;;2.03;1.20;;;;;;;10.68;46.21;100142.78;5048276;28;20072;-71
2023/01/08 00:08:32;;;;;;;1.90;1.13;;;;;;;10.68;45.91;100143.66;5064604;28;20070;-72
2023/01/08 00:11:00;;;;;;;1.80;1.05;;;;;;;10.66;46.07;100142.06;5066344;28;20044;-70
2023/01/08 00:13:28;;;;;;;1.73;1.02;;;;;;;10.66;45.95;100139.34;5067464;28;20032;-70
2023/01/08 00:15:56;;;;;;;1.70;1.17;;;;;;;10.65;45.85;100138.47;5058971;28;20045;-70
2023/01/08 00:18:26;;;;;;;1.52;1.00;;;;;;;10.66;46.12;100133.88;5059410;28;20051;-70
2023/01/08 00:20:53;;;;;;;1.95;1.08;;;;;;;10.65;45.79;100119.31;5048801;28;20051;-69
2023/01/08 00:23:21;;;;;;;1.73;1.13;;;;;;;10.65;46.17;100122.06;5067356;28;20048;-69
2023/01/08 00:25:50;;;;;;;2.30;1.27;;;;;;;10.66;45.71;100131.13;5045311;28;20064;-70
2023/01/08 00:28:19;;;;;;;1.95;1.20;;;;;;;10.64;45.78;100125.84;5047426;28;20051;-69
2023/01/08 00:30:48;;;;;;;3.28;1.25;;;;;;;10.64;46.18;100117.63;5034539;28;20048;-69
2023/01/08 00:33:16;;;;;;;2.10;1.17;;;;;;;10.64;46.00;100125.84;5046929;28;20068;-69
2023/01/08 00:35:44;;;;;;;1.40;1.02;;;;;;;10.64;46.49;100117.63;5062979;28;20063;-69
2023/01/08 00:38:12;;;;;;;1.33;0.98;;;;;;;10.65;46.14;100123.97;5067353;28;20500;-70
2023/01/08 00:40:40;;;;;;;2.17;1.20;;;;;;;10.64;46.23;100128.56;5066755;28;20459;-70
2023/01/08 00:43:10;;;;;;;1.67;1.10;;;;;;;10.67;46.19;100127.38;5067233;28;20033;-70
2023/01/08 00:45:37;;;;;;;2.25;1.30;;;;;;;10.65;46.18;100124.78;5065731;28;20047;-69
2023/01/08 00:48:06;;;;;;;1.65;1.00;;;;;;;10.65;46.63;100113.84;5054134;28;20320;-70
2023/01/08 00:50:34;;;;;;;1.50;1.17;;;;;;;10.65;46.53;100113.84;5029212;28;20042;-69
2023/01/08 00:53:02;;;;;;;2.88;1.20;;;;;;;10.65;46.33;100115.75;5040548;28;20052;-70
2023/01/08 00:55:30;;;;;;;1.70;1.20;;;;;;;10.65;46.45;100110.28;5046035;28;20072;-69
2023/01/08 00:57:58;;;;;;;2.40;1.40;;;;;;;10.65;46.60;100108.38;5043528;28;20041;-69
2023/01/08 01:00:28;;;;;;;2.15;1.20;;;;;;;10.66;45.95;100106.50;5042532;28;20048;-69
2023/01/08 01:02:55;;;;;;;2.00;1.60;;;;;;;10.65;45.91;100108.38;5047075;28;20512;-69
2023/01/08 01:05:23;;;;;;;2.53;1.23;;;;;;;10.65;46.15;100099.34;5044819;28;20068;-70
2023/01/08 01:07:51;;;;;;;2.40;1.25;;;;;;;10.65;46.56;100089.22;5046874;28;20532;-69
2023/01/08 01:10:19;;;;;;;2.15;1.25;;;;;;;10.65;45.89;100094.69;5034969;28;20045;-69
2023/01/08 01:12:47;;;;;;;2.10;1.23;;;;;;;10.64;46.16;100119.50;5045806;28;20051;-69
2023/01/08 01:15:17;;;;;;;2.10;1.20;;;;;;;10.65;46.11;100100.16;5045946;28;20049;-68
2023/01/08 01:17:46;;;;;;;1.90;1.30;;;;;;;10.65;46.23;100088.38;5046527;28;20474;-70
2023/01/08 01:20:16;;;;;;;2.30;1.25;;;;;;;10.65;46.04;100085.66;5046071;28;20060;-70
2023/01/08 01:22:44;;;;;;;2.47;1.23;;;;;;;10.63;46.28;100099.47;5054540;28;20132;-70
2023/01/08 01:25:12;;;;;;;3.63;1.40;;;;;;;10.63;46.21;100109.56;5045480;28;20051;-70
2023/01/08 01:27:40;;;;;;;1.75;1.20;;;;;;;10.64;46.71;100101.22;5045844;28;20049;-69
2023/01/08 01:30:09;;;;;;;2.42;1.40;;;;;;;10.65;46.35;100094.69;5019251;28;20300;-69
2023/01/08 01:32:37;;;;;;;2.65;1.40;;;;;;;10.64;46.39;100090.25;5044635;28;20197;-69
2023/01/08 01:35:07;;;;;;;2.03;1.20;;;;;;;10.66;46.33;100084.59;5048184;28;20048;-69
2023/01/08 01:37:35;;;;;;;2.65;1.30;;;;;;;10.64;46.71;100098.47;5046006;28;20044;-69
2023/01/08 01:40:03;;;;;;;2.00;1.20;;;;;;;10.65;46.27;100093.88;5046176;28;20068;-69
2023/01/08 01:42:40;;;;;;;2.38;1.20;;;;;;;10.65;46.60;100091.97;5047393;28;20033;-69
2023/01/08 01:45:18;;;;;;;1.85;1.20;;;;;;;10.66;46.75;100090.94;5045602;28;20051;-69
2023/01/08 01:47:49;;;;;;;3.13;1.30;;;;;;;10.65;46.33;100091.97;5048734;28;20121;-69
2023/01/08 01:50:22;;;;;;;1.92;1.25;;;;;;;10.65;46.57;100096.59;5057727;28;20554;-69
2023/01/08 01:52:55;;;;;;;5.60;1.40;;;;;;;10.65;46.41;100093.88;5056509;28;20036;-69
2023/01/08 01:55:26;;;;;;;2.55;1.40;;;;;;;10.64;46.66;100094.88;5060237;28;20048;-69
2023/01/08 01:58:01;;;;;;;2.65;1.38;;;;;;;10.66;46.76;100101.88;5068571;28;20024;-69
2023/01/08 02:00:29;;;;;;;2.65;1.42;;;;;;;10.64;47.30;100086.66;5063526;28;20044;-70
2023/01/08 02:02:57;;;;;;;2.67;1.30;;;;;;;10.64;46.74;100084.78;5067365;28;20120;-69
2023/01/08 02:05:34;;;;;;;2.78;1.58;;;;;;;10.67;47.54;100086.34;5061284;28;20060;-69
2023/01/08 02:08:07;;;;;;;2.50;1.40;;;;;;;10.65;47.21;100078.28;5064025;28;20106;-69
2023/01/08 02:10:42;;;;;;;2.80;1.38;;;;;;;10.65;47.18;100083.75;5066931;28;20132;-69
2023/01/08 02:13:16;;;;;;;2.85;1.50;;;;;;;10.65;47.69;100080.19;5059921;28;20598;-69
2023/01/08 02:15:52;;;;;;;2.33;1.35;;;;;;;10.65;47.81;100080.19;5060179;28;20535;-69
2023/01/08 02:18:27;;;;;;;2.45;1.27;;;;;;;10.65;47.28;100071.97;5040730;28;20052;-69
2023/01/08 02:21:01;;;;;;;2.70;1.40;;;;;;;10.64;47.31;100076.56;5061100;28;20136;-69
2023/01/08 02:23:38;;;;;;;2.28;1.38;;;;;;;10.65;47.95;100055.56;5058612;28;20037;-69
2023/01/08 02:26:13;;;;;;;2.67;1.40;;;;;;;10.62;47.86;100051.25;5057393;28;20560;-70
2023/01/08 02:28:45;;;;;;;2.45;1.33;;;;;;;10.61;47.39;100044.03;5062967;28;20486;-69
2023/01/08 02:31:15;;;;;;;2.15;1.23;;;;;;;10.59;47.69;100040.59;5061587;28;20048;-69
2023/01/08 02:33:43;;;;;;;3.97;1.80;;;;;;;10.60;47.67;100034.09;5060224;28;20093;-69
2023/01/08 02:36:23;;;;;;;2.67;1.60;;;;;;;10.62;47.94;100032.09;5067833;28;20117;-69
2023/01/08 02:39:03;;;;;;;3.55;1.42;;;;;;;10.61;48.04;100022.16;5068803;28;20048;-69
2023/01/08 02:41:39;;;;;;;2.30;1.35;;;;;;;10.62;47.74;100025.75;5064049;28;20064;-70
2023/01/08 02:44:12;;;;;;;2.42;1.55;;;;;;;10.60;48.01;100014.94;5067742;28;20802;-70
2023/01/08 02:46:42;;;;;;;2.72;1.40;;;;;;;10.60;47.91;100021.28;5053307;28;20040;-69
2023/01/08 02:49:13;;;;;;;2.75;1.45;;;;;;;10.61;47.94;100016.69;5058511;28;20037;-69
2023/01/08 02:51:46;;;;;;;2.95;1.75;;;;;;;10.59;47.87;100005.03;5061567;28;20091;-69
2023/01/08 02:54:17;;;;;;;2.60;1.50;;;;;;;10.57;48.14;99996.09;5062264;28;20044;-69
2023/01/08 02:56:51;;;;;;;3.60;1.95;;;;;;;10.58;47.88;99995.94;5062336;28;20131;-69
2023/01/08 02:59:20;;;;;;;3.45;1.73;;;;;;;10.55;47.92;99999.00;5065435;28;20362;-69
2023/01/08 03:01:49;;;;;;;3.20;1.58;;;;;;;10.54;48.05;99997.28;5063301;28;20044;-69
2023/01/08 03:04:19;;;;;;;2.55;1.50;;;;;;;10.55;47.73;99993.53;5063639;28;20040;-69
2023/01/08 03:06:48;;;;;;;2.13;1.40;;;;;;;10.54;47.72;99988.22;5060507;28;20091;-68
2023/01/08 03:09:17;;;;;;;3.03;1.63;;;;;;;10.53;47.72;99989.19;5057707;28;20041;-69
2023/01/08 03:11:52;;;;;;;2.35;1.40;;;;;;;10.54;48.15;99983.59;5061786;28;20044;-69
2023/01/08 03:14:25;;;;;;;2.65;1.52;;;;;;;10.51;47.88;99972.06;5047578;28;20505;-69
2023/01/08 03:16:58;;;;;;;2.42;1.60;;;;;;;10.51;48.47;99980.28;5061625;28;20531;-69
2023/01/08 03:19:31;;;;;;;3.80;1.50;;;;;;;10.51;47.98;99974.81;5065668;28;20086;-69
2023/01/08 03:22:02;;;;;;;3.20;1.50;;;;;;;10.49;48.14;99972.22;5053955;28;20045;-69
2023/01/08 03:24:34;;;;;;;2.83;1.58;;;;;;;10.51;48.53;99964.72;5064043;28;20045;-69
2023/01/08 03:27:06;;;;;;;2.92;1.60;;;;;;;10.50;48.74;99967.59;5058451;28;20247;-69
2023/01/08 03:29:36;;;;;;;3.25;1.88;;;;;;;10.48;48.44;99964.19;5060812;28;20036;-69
2023/01/08 03:32:07;;;;;;;3.13;1.83;;;;;;;10.50;48.25;99959.41;5061104;28;20545;-70
2023/01/08 03:34:37;;;;;;;3.47;1.95;;;;;;;10.49;48.64;99965.88;5042174;28;20044;-70
2023/01/08 03:37:07;;;;;;;3.58;1.55;;;;;;;10.49;48.35;99974.97;5063384;28;20044;-70
2023/01/08 03:39:41;;;;;;;2.40;1.65;;;;;;;10.49;48.74;99969.47;5065167;28;20083;-69
2023/01/08 03:42:14;;;;;;;3.30;1.55;;;;;;;10.48;48.80;99967.75;5064613;28;20040;-69
2023/01/08 03:44:42;;;;;;;2.78;1.52;;;;;;;10.46;48.52;99982.63;5062013;28;20048;-69
2023/01/08 03:47:11;;;;;;;3.20;1.88;;;;;;;10.48;48.87;99967.75;5063271;28;20049;-70
2023/01/08 03:49:42;;;;;;;2.80;1.55;;;;;;;10.49;48.32;99966.75;5054155;28;20512;-70
2023/01/08 03:52:20;;;;;;;2.33;1.42;;;;;;;10.48;48.81;99970.50;5058342;28;20476;-70
2023/01/08 03:54:48;;;;;;;3.88;1.75;;;;;;;10.48;48.91;99967.75;5063071;28;20131;-69
2023/01/08 03:57:17;;;;;;;2.60;1.55;;;;;;;10.48;48.83;99959.56;5061062;28;20043;-69
2023/01/08 03:59:45;;;;;;;3.05;1.75;;;;;;;10.48;48.96;99956.81;5062840;28;20048;-69
2023/01/08 04:02:14;;;;;;;2.85;1.60;;;;;;;10.49;48.67;99961.28;5062464;23;20517;-80
2023/01/08 04:04:42;;;;;;;2.42;1.40;;;;;;;10.48;48.89;99956.81;5048471;28;20509;-81
2023/01/08 04:07:11;;;;;;;3.08;1.70;;;;;;;10.49;48.90;99955.81;5058627;28;20063;-83
2023/01/08 04:09:39;;;;;;;3.63;1.50;;;;;;;10.49;48.77;99949.47;5051477;28;20056;-82
2023/01/08 04:12:07;;;;;;;3.05;1.35;;;;;;;10.48;48.89;99956.00;5057303;28;20590;-81
2023/01/08 04:14:36;;;;;;;2.42;1.35;;;;;;;10.50;48.90;99959.41;5050435;28;20041;-81
2023/01/08 04:17:04;;;;;;;2.13;1.40;;;;;;;10.49;49.15;99955.81;5058555;28;20036;-81
2023/01/08 04:19:32;;;;;;;2.35;1.30;;;;;;;10.49;48.81;99958.53;5069341;28;20490;-83
2023/01/08 04:22:00;;;;;;;3.30;1.58;;;;;;;10.49;48.73;99958.53;5061822;28;20047;-82
2023/01/08 04:24:27;;;;;;;2.53;1.60;;;;;;;10.49;48.74;99953.06;5048202;28;20495;-82
2023/01/08 04:26:55;;;;;;;2.97;1.33;;;;;;;10.50;49.07;99951.19;5048794;28;20558;-82
2023/01/08 04:29:23;;;;;;;1.75;1.13;;;;;;;10.50;48.95;99949.31;5049014;28;20135;-82
2023/01/08 04:31:52;;;;;;;2.33;1.30;;;;;;;10.52;49.50;99949.16;5052729;28;20040;-82
2023/01/08 04:34:20;;;;;;;2.50;1.30;;;;;;;10.48;48.96;99940.41;5048441;28;20039;-82
2023/01/08 04:36:48;;;;;;;2.05;1.25;;;;;;;10.49;49.04;99938.53;5048334;28;20491;-82
2023/01/08 04:39:16;;;;;;;2.35;1.23;;;;;;;10.48;48.88;99940.41;5058719;28;20094;-82
2023/01/08 04:41:44;;;;;;;2.45;1.33;;;;;;;10.48;49.18;99945.03;5065831;28;20037;-82
2023/01/08 04:44:12;;;;;;;2.40;1.27;;;;;;;10.47;49.13;99946.91;5064611;28;20454;-83
2023/01/08 04:46:40;;;;;;;2.13;1.23;;;;;;;10.49;49.52;99946.75;5062321;28;20040;-82
2023/01/08 04:49:10;;;;;;;2.83;1.40;;;;;;;10.48;49.21;99942.31;5041675;28;20498;-83
2023/01/08 04:51:38;;;;;;;2.45;1.30;;;;;;;10.47;49.40;99932.38;5049356;28;20414;-83
2023/01/08 04:54:06;;;;;;;2.25;1.30;;;;;;;10.46;49.52;99931.53;5068533;28;20052;-82
2023/01/08 04:56:33;;;;;;;3.03;1.30;;;;;;;10.46;49.38;99923.31;5063138;28;20041;-82
2023/01/08 04:59:02;;;;;;;1.70;1.15;;;;;;;10.47;49.06;99925.03;5060649;28;20063;-82
2023/01/08 05:01:29;;;;;;;1.52;1.02;;;;;;;10.47;49.15;99918.69;5051300;28;20048;-82
2023/01/08 05:03:59;;;;;;;2.08;1.10;;;;;;;10.47;49.47;99922.31;5052687;28;20131;-81
2023/01/08 05:06:29;;;;;;;2.17;1.10;;;;;;;10.48;49.18;99917.69;5070266;28;20498;-83
2023/01/08 05:08:58;;;;;;;1.50;1.00;;;;;;;10.46;49.25;99920.56;5069111;28;20052;-81
2023/01/08 05:11:26;;;;;;;2.00;1.10;;;;;;;10.47;49.39;99922.31;5042928;28;20474;-82
2023/01/08 05:13:53;;;;;;;2.88;1.15;;;;;;;10.46;49.23;99914.25;5046195;28;20514;-82
2023/01/08 05:16:22;;;;;;;1.52;0.95;;;;;;;10.47;49.53;99916.81;5073478;28;20045;-82
2023/01/08 05:18:50;;;;;;;1.23;1.00;;;;;;;10.47;49.27;99925.03;5070696;28;20052;-82
2023/01/08 05:21:18;;;;;;;2.25;1.05;;;;;;;10.47;49.05;99916.81;5049702;28;20044;-82
2023/01/08 05:23:48;;;;;;;1.67;1.00;;;;;;;10.48;49.57;99912.22;5048660;28;20044;-82
2023/01/08 05:26:18;;;;;;;1.33;1.00;;;;;;;10.48;48.94;99910.31;5052010;28;20068;-82
2023/01/08 05:28:46;;;;;;;2.55;1.02;;;;;;;10.48;49.13;99893.06;5050022;28;20055;-82
2023/01/08 05:31:14;;;;;;;1.75;0.90;;;;;;;10.48;49.05;99895.81;5058656;28;20040;-82
2023/01/08 05:33:43;;;;;;;1.20;0.90;;;;;;;10.48;49.16;99899.38;5079758;28;20078;-82
2023/01/08 05:36:12;;;;;;;1.20;0.90;;;;;;;10.49;48.88;99908.44;5072458;28;20055;-82
2023/01/08 05:38:40;;;;;;;1.25;0.70;;;;;;;10.48;49.41;99910.31;5055283;28;20048;-81
2023/01/08 05:41:10;;;;;;;1.65;0.90;;;;;;;10.49;49.33;99901.09;5071493;28;20400;-82
2023/01/08 05:43:38;;;;;;;0.77;0.70;;;;;;;10.48;49.18;99913.03;5051579;28;20408;-82
2023/01/08 05:46:05;;;;;;;1.05;0.70;;;;;;;10.48;49.07;99915.78;5068786;28;20505;-83
2023/01/08 05:48:36;;;;;;;1.30;0.80;;;;;;;10.49;48.88;99901.09;5067664;28;20073;-84
2023/01/08 05:51:04;;;;;;;1.60;0.90;;;;;;;10.49;49.14;99902.97;5056898;28;20058;-82
2023/01/08 05:53:32;;;;;;;1.38;0.80;;;;;;;10.49;48.74;99901.09;5067179;28;20036;-81
2023/01/08 05:56:02;;;;;;;1.95;0.88;;;;;;;10.50;49.18;99899.22;5055209;28;20109;-82
2023/01/08 05:58:31;;;;;;;1.33;0.75;;;;;;;10.50;49.15;99894.59;5058012;28;20051;-82
2023/01/08 06:01:05;;;;;;;1.13;0.80;;;;;;;10.50;48.83;99900.09;5069023;28;20087;-82
2023/01/08 06:03:33;;;;;;;1.67;0.90;;;;;;;10.47;48.59;99908.63;5052474;28;20748;-81
2023/01/08 06:06:02;;;;;;;1.25;0.70;;;;;;;10.47;49.00;99900.41;5050147;28;20049;-83
2023/01/08 06:08:30;;;;;;;0.93;0.60;;;;;;;10.47;48.82;99896.81;5051651;28;20048;-82
2023/01/08 06:10:59;;;;;;;0.68;0.55;;;;;;;10.47;48.30;99892.22;5049280;28;20041;-82
2023/01/08 06:13:28;;;;;;;0.98;0.57;;;;;;;10.47;48.23;99897.69;5053056;28;20541;-82
2023/01/08 06:16:00;;;;;;;1.63;0.57;;;;;;;10.46;48.06;99895.97;5054026;28;20352;-81
2023/01/08 06:18:29;;;;;;;1.15;0.68;;;;;;;10.45;48.21;99902.44;5062595;28;20040;-81
2023/01/08 06:20:57;;;;;;;1.13;0.60;;;;;;;10.44;48.69;99908.91;5065001;28;20739;-82
2023/01/08 06:23:25;;;;;;;1.27;0.50;;;;;;;10.43;48.36;99901.72;5051950;28;20440;-82
2023/01/08 06:25:53;;;;;;;0.85;0.60;;;;;;;10.44;48.32;99891.66;5067774;28;20040;-82
2023/01/08 06:28:22;;;;;;;1.15;0.38;;;;;;;10.43;48.10;99882.59;5053765;28;20064;-82
2023/01/08 06:30:50;;;;;;;1.00;0.60;;;;;;;10.41;48.00;99890.06;5065523;28;20044;-82
2023/01/08 06:33:20;;;;;;;0.93;0.50;;;;;;;10.41;47.97;99887.34;5064355;28;20044;-82
2023/01/08 06:35:48;;;;;;;1.10;0.60;;;;;;;10.41;48.10;99886.47;5068183;28;20037;-82
2023/01/08 06:38:17;;;;;;;1.17;0.70;;;;;;;10.40;48.05;99895.72;5049864;28;20489;-81
2023/01/08 06:40:46;;;;;;;1.05;0.50;;;;;;;10.40;48.19;99940.31;5068767;28;20053;-82
2023/01/08 06:43:14;;;;;;;0.60;0.50;;;;;;;10.39;47.67;99985.13;5051913;28;20056;-83
2023/01/08 06:45:42;;;;;;;0.75;0.30;;;;;;;10.39;47.34;99984.28;5049553;28;20043;-83
2023/01/08 06:48:10;;;;;;;1.40;0.50;;;;;;;10.36;46.97;99979.97;5054109;28;20048;-82
2023/01/08 06:50:39;;;;;;;0.73;0.38;;;;;;;10.33;47.29;99982.13;5047258;28;20070;-83
2023/01/08 06:53:06;;;;;;;1.00;0.60;;;;;;;10.27;47.41;99988.22;5050460;28;20053;-82
2023/01/08 06:55:34;;;;;;;1.67;0.43;;;;;;;10.19;47.02;99992.59;5065742;28;20241;-82
2023/01/08 06:58:02;;;;;;;1.65;0.80;;;;;;;10.16;46.98;99989.28;5068646;28;20055;-83
2023/01/08 07:00:30;;;;;;;1.48;0.60;;;;;;;10.11;47.24;99973.34;5054183;28;20045;-81
2023/01/08 07:02:57;;;;;;;0.88;0.40;;;;;;;10.06;47.34;99972.09;5054984;28;20037;-81
2023/01/08 07:05:25;;;;;;;1.20;0.50;;;;;;;10.03;47.27;99969.66;5050784;28;20115;-81
2023/01/08 07:07:55;;;;;;;0.30;0.30;;;;;;;9.99;47.36;99947.22;5067024;28;20037;-81
2023/01/08 07:10:23;;;;;;;2.20;0.50;;;;;;;9.96;47.60;99965.81;5049512;28;20044;-82
2023/01/08 07:12:51;;;;;;;1.95;0.50;;;;;;;9.94;47.92;99963.22;5043398;28;20051;-82
2023/01/08 07:15:18;;;;;;;1.45;0.50;;;;;;;9.92;47.83;99973.44;5050761;28;20566;-82
2023/01/08 07:17:46;;;;;;;1.00;0.50;;;;;;;9.90;48.12;99980.09;5055539;28;20052;-82
2023/01/08 07:20:14;;;;;;;1.75;0.60;;;;;;;9.89;48.03;99990.16;5058498;28;20049;-82
2023/01/08 07:22:42;;;;;;;1.00;0.50;;;;;;;9.88;48.20;99993.06;5069868;28;20041;-82
2023/01/08 07:25:12;;;;;;;0.80;0.57;;;;;;;9.87;48.36;99991.31;5069968;28;20264;-83
2023/01/08 07:27:40;;;;;;;1.80;0.68;;;;;;;9.85;48.63;99995.06;5049754;28;20091;-83
2023/01/08 07:30:09;;;;;;;0.85;0.60;;;;;;;9.85;48.13;99996.94;5038464;28;20044;-83
2023/01/08 07:32:58;;;;;;;1.90;0.68;;;;;;;9.85;48.69;99988.72;5069668;28;20117;-83
2023/01/08 07:35:27;;;;;;;3.08;0.70;;;;;;;9.83;48.76;99994.34;5055061;28;20135;-82
2023/01/08 07:37:55;;;;;;;1.92;0.73;;;;;;;9.81;48.25;99988.19;5052068;28;20047;-81
2023/01/08 07:40:24;;;;;;;1.88;0.80;;;;;;;9.82;48.45;99975.41;5049689;28;20074;-81
2023/01/08 07:42:58;;;;;;;4.35;1.42;;;;;;;9.82;48.49;99984.41;5045760;28;20127;-81
2023/01/08 07:45:26;;;;;;;1.90;0.57;;;;;;;9.80;48.23;99985.59;5053965;28;20041;-82
2023/01/08 07:47:56;;;;;;;1.33;0.60;;;;;;;9.79;48.60;99973.81;5057530;28;20037;-83
2023/01/08 07:50:24;;;;;;;1.70;0.60;;;;;;;9.76;48.45;99974.09;5056539;28;20760;-82
2023/01/08 07:52:51;;;;;;;1.08;0.50;;;;;;;9.77;48.40;99986.75;5059436;28;20045;-82
2023/01/08 07:55:19;;;;;;;1.48;0.52;;;;;;;9.77;48.18;99977.69;5051311;28;20043;-82
2023/01/08 07:57:48;;;;;;;2.03;0.40;;;;;;;9.78;48.16;99982.16;5061559;28;20040;-82
2023/01/08 08:00:17;;;;;;;2.38;0.60;;;;;;;9.75;48.55;99969.66;5064492;28;20048;-82
2023/01/08 08:02:45;;;;;;;0.47;0.30;;;;;;;9.75;48.49;99969.66;5047936;28;20041;-82
2023/01/08 08:05:13;;;;;;;0.75;0.55;;;;;;;9.75;48.49;99975.13;5071032;28;20037;-83
2023/01/08 08:07:41;;;;;;;1.83;0.50;;;;;;;9.74;48.63;99967.91;5056029;28;20125;-80
2023/01/08 08:10:10;;;;;;;1.83;0.70;;;;;;;9.74;48.30;99964.34;5083054;28;20041;-82
2023/01/08 08:12:38;;;;;;;2.08;0.50;;;;;;;9.73;48.42;99973.56;5058239;28;20522;-83
2023/01/08 08:15:09;;;;;;;1.02;0.40;;;;;;;9.73;48.30;99960.75;5047715;28;20052;-82
2023/01/08 08:17:37;;;;;;;0.63;0.50;;;;;;;9.71;48.64;99954.59;5047563;28;20048;-82
2023/01/08 08:20:06;;;;;;;2.03;0.52;;;;;;;9.71;48.08;99957.31;5043946;28;20056;-81
2023/01/08 08:22:34;;;;;;;2.28;0.60;;;;;;;9.69;48.21;99953.88;5047947;28;20040;-83
2023/01/08 08:25:01;;;;;;;1.23;0.60;;;;;;;9.67;48.20;99958.63;5056331;28;20045;-82
2023/01/08 08:27:29;;;;;;;1.48;0.65;;;;;;;9.67;48.40;99966.81;5066361;28;20041;-82
2023/01/08 08:29:57;;;;;;;1.73;0.70;;;;;;;9.65;48.04;99966.13;5046623;28;20087;-83
2023/01/08 08:32:26;;;;;;;1.55;1.10;;;;;;;9.67;48.04;99966.81;5053375;28;20060;-83
2023/01/08 08:34:54;;;;;;;2.50;0.70;;;;;;;9.65;48.31;99968.00;5061390;28;20045;-84
2023/01/08 08:37:22;;;;;;;1.83;0.60;;;;;;;9.64;48.23;99958.06;5044627;28;20526;-80
2023/01/08 08:39:50;;;;;;;1.90;0.60;;;;;;;9.63;48.27;99951.75;5049169;28;20052;-80
2023/01/08 08:42:17;;;;;;;1.30;0.65;;;;;;;9.62;48.19;99950.00;5051560;28;20040;-83
2023/01/08 08:44:46;;;;;;;3.40;0.57;;;;;;;9.61;48.20;99942.81;5067443;28;20131;-84
2023/01/08 08:47:14;;;;;;;2.45;0.80;;;;;;;9.64;48.70;99944.41;5043988;28;20048;-84
2023/01/08 08:49:43;;;;;;;2.97;0.85;;;;;;;9.66;48.53;99939.66;5034637;28;20041;-84
2023/01/08 08:52:11;;;;;;;2.22;1.10;;;;;;;9.64;48.63;99933.47;5049111;28;20052;-83
2023/01/08 08:54:40;;;;;;;1.63;0.75;;;;;;;9.64;48.49;99928.03;5049864;28;20053;-83
2023/01/08 08:57:08;;;;;;;3.35;0.80;;;;;;;9.64;48.53;99930.75;5050820;28;20152;-84
2023/01/08 08:59:36;;;;;;;2.45;0.80;;;;;;;9.64;48.34;99926.16;5042793;28;20044;-84
2023/01/08 09:02:05;;;;;;;3.60;1.00;;;;;;;9.64;48.14;99923.41;5061375;28;20041;-83
2023/01/08 09:04:34;;;;;;;2.28;0.70;;;;;;;9.66;48.34;99931.47;5060390;28;20311;-84
2023/01/08 09:07:03;;;;;;;4.88;0.98;;;;;;;9.64;48.20;99923.41;5046834;28;20052;-83
2023/01/08 09:09:31;;;;;;;1.50;0.70;;;;;;;9.66;48.29;99926.00;5038547;28;20045;-82
2023/01/08 09:11:59;;;;;;;2.78;0.70;;;;;;;9.66;48.33;99926.84;5054736;28;20048;-82
2023/01/08 09:14:27;;;;;;;2.53;0.88;;;;;;;9.69;48.29;99921.06;5048336;28;20585;-82
2023/01/08 09:16:55;;;;;;;3.90;1.02;;;;;;;9.73;48.50;99929.84;5038660;28;20530;-82
2023/01/08 09:19:23;;;;;;;3.35;1.00;;;;;;;9.75;48.52;99928.66;5042582;28;20041;-83
2023/01/08 09:21:51;;;;;;;2.58;1.00;;;;;;;9.80;48.58;99926.34;5050093;28;20037;-83
2023/01/08 09:24:20;;;;;;;3.63;1.10;;;;;;;9.87;48.85;99921.13;5046197;28;20041;-82
2023/01/08 09:26:48;;;;;;;2.50;1.00;;;;;;;9.92;48.32;99921.53;5041918;28;20122;-82
2023/01/08 09:29:16;;;;;;;3.85;1.08;;;;;;;9.99;48.69;99925.34;5052317;28;20044;-83
2023/01/08 09:31:44;;;;;;;4.90;1.17;;;;;;;10.05;48.71;99924.75;5063417;28;20037;-83
2023/01/08 09:34:12;;;;;;;3.47;1.00;;;;;;;10.12;48.71;99919.53;5049598;28;20052;-83
2023/01/08 09:36:40;;;;;;;2.67;0.95;;;;;;;10.19;48.26;99920.63;5049225;28;20051;-82
2023/01/08 09:39:09;;;;;;;2.50;0.95;;;;;;;10.26;48.33;99916.25;5067769;28;20041;-83
2023/01/08 09:41:41;;;;;;;2.30;0.90;;;;;;;10.33;47.77;99916.50;5062864;28;20051;-82
2023/01/08 09:44:15;;;;;;;4.38;0.90;;;;;;;10.37;47.90;99917.91;5073082;28;20063;-82
2023/01/08 09:46:44;;;;;;;4.00;1.08;;;;;;;10.42;48.12;99915.56;5082056;28;20064;-81
2023/01/08 09:49:16;;;;;;;2.78;1.58;;;;;;;10.46;47.83;99916.97;5071342;28;20041;-83
2023/01/08 09:51:44;;;;;;;2.33;0.80;;;;;;;10.48;47.82;99917.69;5045088;28;20054;-82
2023/01/08 09:54:16;;;;;;;3.05;0.85;;;;;;;10.56;47.60;99910.44;5069763;28;20511;-83
2023/01/08 09:56:46;;;;;;;2.92;1.02;;;;;;;10.63;47.96;99909.81;5045426;28;20045;-82
2023/01/08 09:59:17;;;;;;;2.42;0.88;;;;;;;10.67;47.12;99903.00;5065562;28;20280;-81
2023/01/08 10:01:46;;;;;;;1.67;0.80;;;;;;;10.71;47.40;99908.00;5054630;28;20029;-82
2023/01/08 10:04:17;;;;;;;2.60;0.95;;;;;;;10.78;47.67;99897.28;5071382;28;20041;-81
2023/01/08 10:06:51;;;;;;;2.33;0.90;;;;;;;10.84;47.38;99897.50;5045094;28;20123;-81
2023/01/08 10:09:24;;;;;;;2.10;0.73;;;;;;;10.91;47.19;99892.22;5054250;28;20119;-82
2023/01/08 10:11:55;;;;;;;1.73;0.95;;;;;;;10.96;47.28;99885.28;5054934;28;20487;-81
2023/01/08 10:14:27;;;;;;;1.70;0.70;;;;;;;11.05;46.88;99888.06;5057690;28;21510;-80
2023/01/08 10:16:58;;;;;;;2.80;0.85;;;;;;;11.10;46.93;99872.00;5058119;28;20098;-81
2023/01/08 10:19:26;;;;;;;2.40;0.70;;;;;;;11.15;46.83;99867.75;5047600;28;20048;-80
2023/01/08 10:21:56;;;;;;;2.10;0.73;;;;;;;11.23;46.64;99870.53;5054600;28;20040;-81
2023/01/08 10:24:31;;;;;;;2.35;0.77;;;;;;;11.29;45.86;99866.31;5065038;28;20036;-81
2023/01/08 10:27:07;;;;;;;2.08;0.73;;;;;;;11.34;45.63;99862.03;5070994;28;20543;-82
2023/01/08 10:29:35;;;;;;;2.25;0.90;;;;;;;11.34;46.31;99858.44;5043982;28;20041;-82
2023/01/08 10:32:10;;;;;;;3.42;0.88;;;;;;;11.39;45.33;99847.84;5052906;28;20509;-81
2023/01/08 10:34:47;;;;;;;2.05;0.70;;;;;;;11.42;45.08;99844.78;5051334;28;20056;-81
2023/01/08 10:37:22;;;;;;;2.05;0.60;;;;;;;11.44;45.71;99836.41;5081327;28;20175;-80
2023/01/08 10:39:50;;;;;;;1.30;0.70;;;;;;;11.45;45.72;99828.03;5068815;28;20490;-80
2023/01/08 10:42:21;;;;;;;2.47;1.00;;;;;;;11.49;45.29;99823.91;5052016;28;20128;-80
2023/01/08 10:45:02;;;;;;;2.72;0.88;;;;;;;11.54;44.87;99820.69;5054480;28;20040;-81
2023/01/08 10:47:36;;;;;;;1.60;0.70;;;;;;;11.53;45.80;99819.84;5071121;28;20487;-83
2023/01/08 10:50:15;;;;;;;2.38;0.90;;;;;;;11.56;45.64;99814.00;5056562;28;20051;-81
2023/01/08 10:52:52;;;;;;;2.33;0.90;;;;;;;11.59;44.68;99805.47;5057232;28;20462;-80
2023/01/08 10:55:26;;;;;;;1.60;0.93;;;;;;;11.58;44.60;99808.38;5051846;28;20139;-81
2023/01/08 10:58:01;;;;;;;2.03;0.70;;;;;;;11.59;44.68;99791.75;5046038;28;20049;-81
2023/01/08 11:00:30;;;;;;;1.88;0.80;;;;;;;11.57;45.32;99790.19;5040897;28;20053;-80
2023/01/08 11:03:01;;;;;;;1.95;0.65;;;;;;;11.57;45.32;99790.19;5050622;28;20041;-80
2023/01/08 11:05:31;;;;;;;2.35;0.70;;;;;;;11.56;44.70;99791.22;5050526;28;20098;-80
2023/01/08 11:08:01;;;;;;;2.03;0.70;;;;;;;11.53;45.01;99781.47;5041073;28;20055;-81
2023/01/08 11:10:29;;;;;;;1.95;0.82;;;;;;;11.51;44.83;99782.66;5046182;28;20044;-80
2023/01/08 11:13:03;;;;;;;2.72;0.98;;;;;;;11.51;44.67;99768.97;5053529;28;20036;-80
2023/01/08 11:15:36;;;;;;;1.52;0.70;;;;;;;11.50;44.49;99767.25;5047772;28;20131;-80
2023/01/08 11:18:16;;;;;;;3.38;0.95;;;;;;;11.51;44.03;99763.47;5056112;28;20049;-82
2023/01/08 11:20:45;;;;;;;2.08;0.75;;;;;;;11.46;44.77;99754.91;5054769;28;20058;-79
2023/01/08 11:23:19;;;;;;;2.67;0.88;;;;;;;11.48;43.78;99750.09;5050295;28;20037;-79
2023/01/08 11:26:01;;;;;;;1.70;0.70;;;;;;;11.46;43.40;99753.03;5047058;28;20075;-79
2023/01/08 11:28:48;;;;;;;2.30;0.52;;;;;;;11.43;44.24;99766.19;5052906;28;20108;-82
2023/01/08 11:31:22;;;;;;;2.10;0.85;;;;;;;11.41;44.29;99747.19;5056588;28;20040;-82
2023/01/08 11:33:55;;;;;;;2.03;0.80;;;;;;;11.41;44.30;99740.84;5056877;28;20052;-81
2023/01/08 11:36:28;;;;;;;1.58;0.63;;;;;;;11.39;43.86;99738.25;5054583;28;20112;-81
2023/01/08 11:38:56;;;;;;;2.58;1.00;;;;;;;11.35;44.44;99732.28;5052540;28;20136;-81
2023/01/08 11:41:38;;;;;;;1.63;0.88;;;;;;;11.36;43.73;99711.22;5058859;28;20064;-82
2023/01/08 11:44:27;;;;;;;1.63;0.90;;;;;;;11.34;43.62;99716.00;5055920;28;20033;-82
2023/01/08 11:47:03;;;;;;;1.35;0.70;;;;;;;11.33;43.88;99692.38;5054585;28;20374;-82